Time;durP1;ratioP1;P1;durP2;ratioP2;P2;SDS_P1;SDS_P2;PMS_P1;PMS_P2;Temp;Humidity;BMP_temperature;BMP_pressure;BME280_temperature;BME280_humidity;BME280_pressure;Samples;Min_cycle;Max_cycle;Signal;HPM_P1;HPM_P2
2022/12/09 00:01:47;;;;;;;30.00;17.40;;;;;;;3.56;63.51;99472.25;4841149;28;97412;-84
2022/12/09 00:04:14;;;;;;;26.63;15.63;;;;;;;3.43;63.77;99449.16;4838839;28;97812;-84
2022/12/09 00:06:39;;;;;;;24.83;15.77;;;;;;;3.62;63.95;99473.88;4849323;28;102034;-83
2022/12/09 00:09:05;;;;;;;26.37;17.00;;;;;;;3.74;63.59;99471.03;4828239;29;101062;-84
2022/12/09 00:11:30;;;;;;;27.27;15.73;;;;;;;3.75;63.20;99472.75;4847036;28;97189;-84
2022/12/09 00:13:57;;;;;;;22.77;16.07;;;;;;;3.55;63.40;99447.19;4848212;28;97636;-84
2022/12/09 00:16:23;;;;;;;25.90;16.00;;;;;;;3.67;63.26;99468.59;4834109;28;101124;-84
2022/12/09 00:18:50;;;;;;;25.33;15.93;;;;;;;3.56;63.29;99464.47;4828741;28;101363;-85
2022/12/09 00:21:27;;;;;;;25.37;15.40;;;;;;;3.41;63.61;99451.78;4832889;28;97389;-83
2022/12/09 00:23:54;;;;;;;24.40;14.97;;;;;;;3.46;63.82;99462.94;4850477;28;97141;-84
2022/12/09 00:26:21;;;;;;;25.73;15.40;;;;;;;3.46;63.84;99481.09;4827883;28;100735;-85
2022/12/09 00:28:48;;;;;;;24.17;15.60;;;;;;;3.46;63.63;99478.50;4837259;28;99996;-84
2022/12/09 00:31:16;;;;;;;23.47;15.47;;;;;;;3.46;63.86;99464.66;4840821;28;96940;-84
2022/12/09 00:33:44;;;;;;;24.47;14.40;;;;;;;3.60;63.58;99478.22;4834518;28;97260;-82
2022/12/09 00:36:13;;;;;;;24.57;16.13;;;;;;;3.46;63.90;99475.91;4856711;28;97757;-84
2022/12/09 00:38:39;;;;;;;25.37;14.67;;;;;;;3.48;63.61;99465.50;4838280;28;101689;-83
2022/12/09 00:41:05;;;;;;;24.07;15.47;;;;;;;3.45;63.83;99471.59;4850505;28;97191;-84
2022/12/09 00:43:30;;;;;;;26.60;15.83;;;;;;;3.29;63.98;99455.47;4848665;28;97342;-84
2022/12/09 00:45:56;;;;;;;26.63;15.93;;;;;;;3.36;64.22;99471.75;4827852;29;101505;-82
2022/12/09 00:48:21;;;;;;;24.47;15.73;;;;;;;3.26;64.12;99455.53;4842467;28;100142;-84
2022/12/09 00:50:47;;;;;;;26.83;16.10;;;;;;;3.40;64.27;99487.25;4841930;29;98053;-84
2022/12/09 00:53:13;;;;;;;27.13;17.27;;;;;;;3.36;64.27;99483.00;4838633;28;96889;-83
2022/12/09 00:55:38;;;;;;;23.30;15.63;;;;;;;3.28;64.77;99484.00;4854904;28;101862;-83
2022/12/09 00:58:04;;;;;;;24.63;15.67;;;;;;;3.27;64.81;99482.31;4845913;28;101181;-84
2022/12/09 01:00:30;;;;;;;25.63;15.67;;;;;;;3.33;64.37;99482.19;4841728;28;96842;-84
2022/12/09 01:02:56;;;;;;;24.87;15.80;;;;;;;3.34;64.57;99489.94;4828877;29;97396;-84
2022/12/09 01:05:21;;;;;;;27.30;16.20;;;;;;;3.34;64.72;99491.69;4855495;28;99939;-83
2022/12/09 01:07:47;;;;;;;25.23;15.83;;;;;;;3.38;64.76;99490.75;4837381;28;100172;-84
2022/12/09 01:10:13;;;;;;;22.17;14.50;;;;;;;3.42;64.27;99482.03;4840186;28;97131;-84
2022/12/09 01:12:38;;;;;;;28.47;16.50;;;;;;;3.55;63.87;99475.75;4832179;28;96902;-84
2022/12/09 01:15:08;;;;;;;25.70;16.87;;;;;;;3.57;64.23;99481.72;4841665;28;102327;-84
2022/12/09 01:17:35;;;;;;;22.23;15.30;;;;;;;3.65;64.19;99478.16;4858525;28;97991;-85
2022/12/09 01:20:02;;;;;;;22.80;15.60;;;;;;;3.58;64.09;99478.28;4848818;28;97197;-83
2022/12/09 01:22:28;;;;;;;26.30;15.73;;;;;;;3.57;64.12;99476.53;4875001;28;96928;-84
2022/12/09 01:24:53;;;;;;;25.40;15.43;;;;;;;3.57;63.94;99473.09;4845756;29;97696;-84
2022/12/09 01:27:19;;;;;;;26.23;14.20;;;;;;;3.52;63.63;99474.91;4840989;28;101373;-84
2022/12/09 01:29:45;;;;;;;23.70;15.73;;;;;;;3.67;63.54;99460.81;4848481;28;97529;-84
2022/12/09 01:32:11;;;;;;;26.87;15.67;;;;;;;3.65;63.34;99473.81;4864205;28;97567;-83
2022/12/09 01:34:37;;;;;;;27.10;16.73;;;;;;;3.64;63.82;99479.91;4835644;29;98302;-81
2022/12/09 01:37:03;;;;;;;26.10;15.80;;;;;;;3.59;63.55;99471.34;4867073;28;97508;-84
2022/12/09 01:39:29;;;;;;;25.97;15.70;;;;;;;3.59;63.88;99481.72;4853698;28;97634;-84
2022/12/09 01:41:54;;;;;;;26.27;14.70;;;;;;;3.63;63.63;99483.34;4834027;28;97341;-84
2022/12/09 01:44:23;;;;;;;31.07;16.57;;;;;;;3.56;63.92;99467.06;4844529;28;98153;-85
2022/12/09 01:46:49;;;;;;;25.30;15.63;;;;;;;3.76;63.56;99479.66;4839502;28;101650;-83
2022/12/09 01:49:19;;;;;;;21.33;13.67;;;;;;;3.75;63.56;99475.34;4844533;28;97254;-82
2022/12/09 01:51:49;;;;;;;27.27;15.70;;;;;;;3.81;63.32;99474.34;4854048;28;97321;-83
2022/12/09 01:54:15;;;;;;;24.97;15.47;;;;;;;3.81;63.17;99469.16;4836946;28;98951;-85
2022/12/09 01:56:41;;;;;;;25.67;16.37;;;;;;;3.83;63.35;99463.06;4833944;28;100191;-81
2022/12/09 01:59:10;;;;;;;23.60;14.43;;;;;;;3.85;63.33;99463.03;4838007;29;97309;-84
2022/12/09 02:01:36;;;;;;;23.57;14.93;;;;;;;3.80;63.22;99457.06;4834274;28;97195;-85
2022/12/09 02:04:02;;;;;;;23.07;14.03;;;;;;;3.79;63.32;99458.81;4844406;28;101236;-84
2022/12/09 02:06:28;;;;;;;25.10;15.43;;;;;;;3.77;62.88;99442.41;4828723;28;101313;-84
2022/12/09 02:08:54;;;;;;;22.40;14.40;;;;;;;3.76;63.12;99445.91;4850262;28;97037;-84
2022/12/09 02:11:31;;;;;;;23.23;15.50;;;;;;;3.93;63.04;99468.94;4852400;28;97195;-84
2022/12/09 02:14:00;;;;;;;23.83;14.50;;;;;;;3.85;62.86;99466.50;4840666;28;101352;-84
2022/12/09 02:16:28;;;;;;;21.23;14.13;;;;;;;3.68;63.19;99446.94;4854364;28;101037;-84
2022/12/09 02:19:42;;;;;;;23.83;15.73;;;;;;;3.68;63.19;99445.19;4828608;28;97820;-83
2022/12/09 02:22:09;;;;;;;21.57;13.37;;;;;;;3.85;63.24;99469.09;4827982;28;97695;-84
2022/12/09 02:25:16;;;;;;;23.63;15.13;;;;;;;3.82;63.15;99461.34;4851165;28;100533;-85
2022/12/09 02:27:50;;;;;;;23.93;15.23;;;;;;;3.87;63.15;99469.06;4842486;28;101599;-83
2022/12/09 02:30:22;;;;;;;22.23;15.60;;;;;;;3.89;63.29;99464.66;4842330;28;97243;-84
2022/12/09 02:33:36;;;;;;;23.07;14.93;;;;;;;3.89;63.19;99461.22;4841688;28;96894;-84
2022/12/09 02:36:12;;;;;;;21.73;14.20;;;;;;;3.73;63.16;99439.94;4759275;29;101858;-84
2022/12/09 02:38:40;;;;;;;25.03;14.87;;;;;;;3.87;63.17;99458.69;4746014;29;101546;-84
2022/12/09 02:41:14;;;;;;;25.67;16.10;;;;;;;3.93;62.86;99455.09;4788459;29;97087;-85
2022/12/09 02:43:47;;;;;;;26.63;17.00;;;;;;;3.97;62.71;99451.53;4750168;29;96813;-84
2022/12/09 02:46:13;;;;;;;28.50;16.53;;;;;;;3.77;62.89;99441.56;4756192;29;101307;-84
2022/12/09 02:48:48;;;;;;;24.93;15.63;;;;;;;3.72;63.28;99445.97;4775842;29;100688;-84
2022/12/09 02:51:16;;;;;;;26.03;15.53;;;;;;;3.71;63.61;99449.47;4764814;29;96869;-84
2022/12/09 02:53:43;;;;;;;26.20;16.17;;;;;;;3.68;63.73;99440.00;4759187;29;97873;-81
2022/12/09 02:56:11;;;;;;;24.90;15.13;;;;;;;3.73;63.86;99445.13;4755468;29;100269;-83
2022/12/09 02:58:38;;;;;;;25.63;16.37;;;;;;;3.62;63.53;99428.00;4749280;29;101402;-85
2022/12/09 03:01:05;;;;;;;26.13;16.57;;;;;;;3.79;63.43;99447.59;4764142;29;97228;-84
2022/12/09 03:03:32;;;;;;;27.33;15.97;;;;;;;3.76;63.25;99452.84;4764240;29;97582;-84
2022/12/09 03:06:17;;;;;;;24.63;15.30;;;;;;;3.76;63.60;99442.47;4778191;28;100583;-84
2022/12/09 03:09:06;;;;;;;23.57;15.47;;;;;;;3.90;62.96;99443.03;4852506;28;100209;-81
2022/12/09 03:11:32;;;;;;;26.03;15.20;;;;;;;3.65;63.22;99427.09;4837700;28;97982;-83
2022/12/09 03:14:15;;;;;;;23.73;14.47;;;;;;;3.63;63.78;99436.63;4844339;28;97222;-84
2022/12/09 03:16:46;;;;;;;;;;;;;;;3.70;63.89;99437.41;4848383;28;102645;-84
2022/12/09 03:19:22;;;;;;;25.80;15.80;;;;;;;3.76;63.43;99445.06;4849965;28;102005;-83
2022/12/09 03:21:49;;;;;;;24.13;15.43;;;;;;;3.54;63.63;99421.25;4844874;28;97250;-84
2022/12/09 03:24:19;;;;;;;24.03;15.97;;;;;;;3.62;63.73;99437.53;4832085;28;97225;-83
2022/12/09 03:26:45;;;;;;;28.50;15.63;;;;;;;3.66;63.83;99444.38;4832156;28;101802;-81
2022/12/09 03:29:16;;;;;;;23.63;15.33;;;;;;;3.55;63.93;99422.94;4838876;28;101802;-85
2022/12/09 03:31:41;;;;;;;21.53;14.60;;;;;;;3.62;63.68;99425.41;4833549;29;96772;-84
2022/12/09 03:34:08;;;;;;;24.07;14.90;;;;;;;3.62;63.92;99414.19;4855873;28;96972;-83
2022/12/09 03:36:36;;;;;;;25.90;15.37;;;;;;;3.61;63.93;99409.88;4872273;28;98041;-85
2022/12/09 03:39:04;;;;;;;30.60;16.83;;;;;;;3.71;63.69;99431.31;4844289;28;98154;-84
2022/12/09 03:41:31;;;;;;;25.23;15.97;;;;;;;3.70;63.87;99430.47;4844492;28;97815;-84
2022/12/09 03:44:04;;;;;;;26.53;16.13;;;;;;;3.63;63.92;99421.91;4849549;28;98018;-82
2022/12/09 03:46:30;;;;;;;35.53;17.90;;;;;;;3.65;63.76;99424.50;4854019;28;98010;-84
2022/12/09 03:48:56;;;;;;;31.40;17.67;;;;;;;3.74;63.81;99426.91;4845850;29;101357;-85
2022/12/09 03:51:31;;;;;;;37.67;19.83;;;;;;;3.67;63.81;99421.88;4844609;28;96750;-84
2022/12/09 03:54:01;;;;;;;36.63;20.40;;;;;;;3.75;64.15;99435.53;4857133;28;96831;-82
2022/12/09 03:56:31;;;;;;;36.20;20.93;;;;;;;3.74;64.10;99432.09;4833444;28;101268;-84
2022/12/09 03:58:58;;;;;;;36.40;19.73;;;;;;;3.76;64.15;99427.72;4822663;28;101534;-83
2022/12/09 04:01:24;;;;;;;39.50;19.77;;;;;;;3.77;64.18;99428.59;4834220;28;97281;-85
2022/12/09 04:03:51;;;;;;;37.07;21.10;;;;;;;3.73;64.25;99425.19;4858421;28;97033;-84
2022/12/09 04:06:17;;;;;;;40.17;20.20;;;;;;;3.66;64.70;99400.25;4835474;28;100678;-84
2022/12/09 04:08:43;;;;;;;36.90;20.40;;;;;;;3.74;64.25;99418.25;4838509;28;101118;-84
2022/12/09 04:11:09;;;;;;;41.53;19.97;;;;;;;3.77;64.45;99426.84;4835226;28;97105;-85
2022/12/09 04:13:35;;;;;;;37.80;21.20;;;;;;;3.68;64.46;99413.19;4841527;28;97019;-85
2022/12/09 04:16:00;;;;;;;37.33;20.07;;;;;;;3.74;64.48;99419.13;4846441;28;101822;-84
2022/12/09 04:18:26;;;;;;;37.03;21.23;;;;;;;3.71;64.68;99415.72;4856207;28;99185;-83
2022/12/09 04:20:51;;;;;;;35.83;20.03;;;;;;;3.75;64.47;99423.44;4840577;28;97082;-83
2022/12/09 04:23:17;;;;;;;34.87;20.53;;;;;;;3.75;64.12;99428.63;4835544;28;97861;-84
2022/12/09 04:25:43;;;;;;;34.37;19.80;;;;;;;3.70;64.41;99414.03;4837690;29;100940;-83
2022/12/09 04:28:08;;;;;;;36.13;20.27;;;;;;;3.60;64.46;99405.56;4842995;29;101083;-84
2022/12/09 04:30:33;;;;;;;33.80;19.83;;;;;;;3.67;64.26;99425.34;4835829;29;97359;-84
2022/12/09 04:32:59;;;;;;;27.57;17.47;;;;;;;3.71;64.10;99423.53;4861124;28;97363;-84
2022/12/09 04:35:25;;;;;;;32.23;20.53;;;;;;;3.61;64.44;99420.25;4855634;28;100910;-83
2022/12/09 04:37:51;;;;;;;38.87;18.63;;;;;;;3.65;64.50;99428.84;4838809;28;101350;-84
2022/12/09 04:40:18;;;;;;;37.80;20.70;;;;;;;3.53;64.52;99411.78;4854781;28;97322;-86
2022/12/09 04:42:43;;;;;;;34.47;19.73;;;;;;;3.57;64.37;99419.44;4856530;28;96886;-84
2022/12/09 04:45:09;;;;;;;39.50;19.97;;;;;;;3.56;64.69;99428.13;4860906;28;101561;-84
2022/12/09 04:47:34;;;;;;;34.83;20.33;;;;;;;3.60;64.66;99436.69;4835824;28;99856;-83
2022/12/09 04:50:00;;;;;;;33.17;19.33;;;;;;;3.56;64.46;99435.91;4839983;29;98302;-84
2022/12/09 04:52:26;;;;;;;36.87;19.13;;;;;;;3.58;64.31;99441.09;4836755;28;98229;-83
2022/12/09 04:54:51;;;;;;;33.00;20.27;;;;;;;3.44;64.47;99424.94;4841422;29;101127;-83
2022/12/09 04:57:17;;;;;;;38.27;19.30;;;;;;;3.45;64.56;99426.63;4851438;28;101061;-84
2022/12/09 04:59:43;;;;;;;33.50;19.33;;;;;;;3.50;64.48;99435.19;4849152;28;97283;-83
2022/12/09 05:02:08;;;;;;;33.50;19.47;;;;;;;3.50;64.24;99438.63;4843472;29;97869;-83
2022/12/09 05:04:34;;;;;;;33.03;20.03;;;;;;;3.48;64.39;99448.19;4836715;28;99990;-84
2022/12/09 05:06:59;;;;;;;33.30;19.70;;;;;;;3.46;64.41;99444.78;4850397;28;101549;-84
2022/12/09 05:09:25;;;;;;;37.70;19.70;;;;;;;3.39;63.79;99438.81;4853101;28;97394;-83
2022/12/09 05:11:50;;;;;;;36.83;20.13;;;;;;;3.40;64.12;99447.47;4832545;29;97049;-83
2022/12/09 05:14:16;;;;;;;32.80;19.90;;;;;;;3.28;64.48;99432.13;4854107;28;97459;-83
2022/12/09 05:16:42;;;;;;;31.73;18.07;;;;;;;3.39;64.47;99459.59;4852682;28;101283;-83
2022/12/09 05:19:07;;;;;;;31.63;18.93;;;;;;;3.40;64.43;99463.03;4859422;28;97070;-82
2022/12/09 05:21:33;;;;;;;34.17;20.00;;;;;;;3.37;64.59;99452.72;4836559;28;97996;-83
2022/12/09 05:24:01;;;;;;;34.80;18.83;;;;;;;3.36;64.66;99453.59;4827961;29;101368;-83
2022/12/09 05:26:26;;;;;;;35.93;19.70;;;;;;;3.39;64.66;99456.13;4850761;28;96801;-82
2022/12/09 05:28:52;;;;;;;33.37;18.33;;;;;;;3.43;64.70;99454.34;4838568;28;96840;-82
2022/12/09 05:31:20;;;;;;;32.70;18.90;;;;;;;3.46;64.49;99460.34;4853052;28;97658;-84
2022/12/09 05:33:46;;;;;;;30.73;17.43;;;;;;;3.34;64.79;99440.66;4857320;28;101509;-83
2022/12/09 05:36:13;;;;;;;35.27;18.07;;;;;;;3.41;64.75;99449.19;4854246;28;101928;-83
2022/12/09 05:38:39;;;;;;;30.63;17.67;;;;;;;3.48;64.60;99460.31;4831588;28;98122;-84
2022/12/09 05:41:05;;;;;;;32.37;18.40;;;;;;;3.45;64.90;99458.63;4835006;28;98078;-83
2022/12/09 05:43:31;;;;;;;31.77;18.17;;;;;;;3.50;64.77;99464.59;4836309;28;101388;-83
2022/12/09 05:45:58;;;;;;;33.90;18.47;;;;;;;3.44;64.90;99443.09;4847929;29;100137;-82
2022/12/09 05:48:23;;;;;;;34.13;17.77;;;;;;;3.51;65.09;99466.28;4838571;28;96861;-83
2022/12/09 05:51:01;;;;;;;30.03;17.73;;;;;;;3.54;65.12;99468.81;4854092;28;97556;-80
2022/12/09 05:53:26;;;;;;;36.13;19.47;;;;;;;3.38;64.90;99438.88;4860269;28;98113;-83
2022/12/09 05:55:52;;;;;;;31.03;17.90;;;;;;;3.54;65.10;99458.44;4850949;28;100003;-83
2022/12/09 05:58:18;;;;;;;29.00;18.07;;;;;;;3.58;65.13;99465.28;4832593;28;97083;-83
2022/12/09 06:00:43;;;;;;;33.33;18.37;;;;;;;3.57;65.13;99462.72;4832487;28;97310;-83
2022/12/09 06:03:09;;;;;;;32.13;17.83;;;;;;;3.54;65.57;99453.25;4850688;28;97234;-83
2022/12/09 06:05:36;;;;;;;32.50;17.80;;;;;;;3.56;65.37;99456.69;4844320;28;101766;-83
2022/12/09 06:08:02;;;;;;;36.00;17.43;;;;;;;3.58;65.26;99454.06;4848129;28;96950;-83
2022/12/09 06:10:28;;;;;;;29.77;17.97;;;;;;;3.59;65.22;99460.97;4853373;28;98020;-83
2022/12/09 06:12:54;;;;;;;32.00;18.70;;;;;;;3.60;65.58;99450.53;4852472;28;99987;-82
2022/12/09 06:15:20;;;;;;;32.87;17.87;;;;;;;3.49;65.52;99443.84;4847998;28;101199;-82
2022/12/09 06:17:45;;;;;;;31.00;17.50;;;;;;;3.62;65.50;99461.75;4834327;28;97211;-83
2022/12/09 06:20:11;;;;;;;29.77;17.73;;;;;;;3.61;65.38;99457.44;4869101;28;97284;-83
2022/12/09 06:22:36;;;;;;;27.87;18.37;;;;;;;3.61;65.28;99448.81;4835180;28;100279;-84
2022/12/09 06:25:02;;;;;;;29.27;17.67;;;;;;;3.57;65.24;99437.63;4850267;28;99645;-82
2022/12/09 06:27:27;;;;;;;33.43;17.87;;;;;;;3.63;65.22;99447.88;4848793;28;96794;-83
2022/12/09 06:29:53;;;;;;;27.40;16.67;;;;;;;3.62;65.68;99450.50;4835661;28;96987;-84
2022/12/09 06:32:18;;;;;;;32.53;19.10;;;;;;;3.61;65.14;99438.44;4847146;28;101734;-85
2022/12/09 06:34:44;;;;;;;34.13;18.27;;;;;;;3.54;65.73;99437.69;4845992;28;101580;-82
2022/12/09 06:37:09;;;;;;;30.20;16.93;;;;;;;3.56;65.42;99448.91;4846876;28;97308;-83
2022/12/09 06:39:35;;;;;;;29.00;17.73;;;;;;;3.54;65.60;99442.00;4836570;28;97842;-83
2022/12/09 06:42:00;;;;;;;29.97;16.97;;;;;;;3.65;65.35;99447.84;4852815;28;97749;-84
2022/12/09 06:44:26;;;;;;;28.37;17.97;;;;;;;3.46;65.25;99416.25;4838959;28;101143;-83
2022/12/09 06:46:51;;;;;;;29.13;17.53;;;;;;;3.63;65.80;99447.88;4849216;28;97060;-81
2022/12/09 06:49:17;;;;;;;27.53;16.93;;;;;;;3.57;65.66;99434.16;4847278;28;96772;-87
2022/12/09 06:51:42;;;;;;;36.67;18.77;;;;;;;3.68;65.20;99446.94;4832078;28;101315;-85
2022/12/09 06:54:08;;;;;;;29.87;17.73;;;;;;;3.66;65.00;99438.31;4834677;29;101421;-87
2022/12/09 06:56:34;;;;;;;27.63;17.03;;;;;;;3.63;64.76;99441.84;4866588;28;97262;-84
2022/12/09 06:59:00;;;;;;;29.77;17.33;;;;;;;3.65;64.89;99458.25;4847011;29;96952;-84
2022/12/09 07:01:26;;;;;;;28.73;17.63;;;;;;;3.69;64.84;99451.25;4857275;28;98697;-88
2022/12/09 07:03:54;;;;;;;28.87;17.40;;;;;;;3.68;64.71;99458.19;4842349;28;98790;-84
2022/12/09 07:06:25;;;;;;;31.93;17.90;;;;;;;3.53;64.81;99423.00;4838049;28;97287;-85
2022/12/09 07:08:51;;;;;;;29.38;16.67;;;;;;;3.66;64.89;99446.97;4841980;28;96871;-85
2022/12/09 07:11:16;;;;;;;32.07;17.87;;;;;;;3.67;65.00;99446.09;4828789;28;101367;-87
2022/12/09 07:13:42;;;;;;;32.73;18.27;;;;;;;3.63;64.66;99431.44;4820736;29;101790;-88
2022/12/09 07:16:07;;;;;;;32.93;18.10;;;;;;;3.62;64.95;99438.38;4851413;28;97599;-87
2022/12/09 07:18:33;;;;;;;28.10;18.53;;;;;;;3.67;64.96;99442.66;4812180;28;97639;-86
2022/12/09 07:21:05;;;;;;;42.23;22.07;;;;;;;3.35;64.62;99389.63;4835947;28;101394;-87
2022/12/09 07:23:31;;;;;;;41.13;20.37;;;;;;;3.63;64.87;99431.44;4838251;28;97432;-87
2022/12/09 07:25:56;;;;;;;36.47;20.07;;;;;;;3.56;64.94;99424.69;4840112;28;97473;-86
2022/12/09 07:28:22;;;;;;;37.80;21.13;;;;;;;3.66;64.74;99448.72;4833603;28;96952;-87
2022/12/09 07:30:47;;;;;;;37.40;21.73;;;;;;;3.76;64.61;99456.28;4827765;28;97476;-86
2022/12/09 07:33:13;;;;;;;33.53;22.73;;;;;;;3.71;64.50;99450.31;4832809;29;98158;-86
2022/12/09 07:35:38;;;;;;;41.80;25.07;;;;;;;3.75;64.48;99454.59;4833875;28;97458;-86
2022/12/09 07:38:04;;;;;;;38.87;25.70;;;;;;;3.56;64.38;99441.09;4832032;28;97365;-87
2022/12/09 07:40:29;;;;;;;37.50;23.57;;;;;;;3.65;64.70;99445.25;4822738;28;98200;-85
2022/12/09 07:42:55;;;;;;;38.37;22.10;;;;;;;3.75;64.77;99471.88;4827217;29;101144;-86
2022/12/09 07:45:21;;;;;;;32.50;21.03;;;;;;;3.75;64.61;99475.34;4815568;28;96942;-87
2022/12/09 07:47:46;;;;;;;34.67;19.60;;;;;;;3.51;64.51;99436.88;4821416;29;97213;-86
2022/12/09 07:50:12;;;;;;;30.57;19.00;;;;;;;3.62;64.80;99460.91;4837992;28;98357;-86
2022/12/09 07:52:37;;;;;;;37.43;20.27;;;;;;;3.59;64.67;99450.56;4827563;28;98268;-86
2022/12/09 07:55:03;;;;;;;36.27;21.33;;;;;;;3.65;64.58;99454.78;4834836;28;97103;-80
2022/12/09 07:57:29;;;;;;;38.47;21.73;;;;;;;3.78;64.40;99469.22;4829938;28;97664;-82
2022/12/09 07:59:55;;;;;;;46.03;23.73;;;;;;;3.72;65.02;99467.59;4818703;28;101619;-87
2022/12/09 08:02:21;;;;;;;53.07;31.27;;;;;;;3.80;64.77;99459.66;4818294;28;100678;-91
2022/12/09 08:04:46;;;;;;;55.33;30.93;;;;;;;3.90;64.81;99471.59;4845002;28;97737;-83
2022/12/09 08:07:12;;;;;;;48.47;27.43;;;;;;;3.87;64.58;99450.88;4847281;28;98837;-83
2022/12/09 08:09:37;;;;;;;55.90;29.03;;;;;;;3.98;64.82;99468.81;4828006;28;101769;-84
2022/12/09 08:12:03;;;;;;;47.83;28.33;;;;;;;4.00;64.49;99485.25;4833366;28;101215;-84
2022/12/09 08:14:29;;;;;;;57.00;32.23;;;;;;;3.98;64.03;99443.69;4828635;28;97388;-90
2022/12/09 08:16:54;;;;;;;52.93;33.13;;;;;;;4.47;64.10;99476.41;4849442;28;98110;-83
2022/12/09 08:19:20;;;;;;;56.40;31.90;;;;;;;4.68;63.50;99469.88;4856434;28;101961;-85
2022/12/09 08:21:45;;;;;;;58.77;31.73;;;;;;;4.92;63.35;99475.38;4842496;28;101654;-84
2022/12/09 08:24:11;;;;;;;60.47;34.70;;;;;;;5.15;62.27;99469.63;4864195;28;96860;-84
2022/12/09 08:26:38;;;;;;;55.57;31.73;;;;;;;5.27;61.46;99465.84;4841605;28;97207;-85
2022/12/09 08:29:11;;;;;;;59.97;34.07;;;;;;;5.50;61.17;99462.59;4839728;28;101604;-85
2022/12/09 08:31:36;;;;;;;50.43;29.53;;;;;;;5.58;60.55;99440.69;4832459;28;100417;-86
2022/12/09 08:34:03;;;;;;;48.40;28.47;;;;;;;5.72;60.06;99458.53;4857808;28;96874;-86
2022/12/09 08:36:29;;;;;;;54.57;28.37;;;;;;;5.90;59.30;99457.16;4857287;28;97390;-86
2022/12/09 08:38:57;;;;;;;53.87;28.17;;;;;;;6.10;58.95;99473.09;4840282;28;100426;-85
2022/12/09 08:41:33;;;;;;;47.27;26.83;;;;;;;6.20;58.50;99455.47;4843705;28;101180;-85
2022/12/09 08:44:06;;;;;;;43.07;26.93;;;;;;;6.23;58.09;99447.53;4840450;28;97424;-85
2022/12/09 08:46:33;;;;;;;49.93;29.00;;;;;;;6.44;57.72;99466.03;4853786;28;96814;-85
2022/12/09 08:49:00;;;;;;;52.40;28.90;;;;;;;6.42;57.76;99444.38;4858465;28;97710;-84
2022/12/09 08:51:26;;;;;;;42.63;25.03;;;;;;;6.65;57.60;99473.19;4842232;28;100396;-86
2022/12/09 08:53:52;;;;;;;45.67;26.40;;;;;;;6.79;57.39;99480.56;4857735;28;97844;-85
2022/12/09 08:56:17;;;;;;;47.13;27.23;;;;;;;6.85;56.62;99469.94;4851816;28;96879;-85
2022/12/09 08:58:43;;;;;;;44.30;26.35;;;;;;;6.98;56.47;99470.38;4856913;28;101162;-85
2022/12/09 09:01:21;;;;;;;52.67;27.42;;;;;;;6.79;55.92;99423.19;4872258;28;97899;-84
2022/12/09 09:03:47;;;;;;;42.20;25.43;;;;;;;7.22;56.19;99466.13;4845624;28;96858;-85
2022/12/09 09:06:13;;;;;;;43.00;24.83;;;;;;;7.20;55.49;99453.13;4841258;28;97229;-85
2022/12/09 09:08:39;;;;;;;41.42;25.30;;;;;;;7.32;55.17;99443.16;4842625;28;99050;-85
2022/12/09 09:11:13;;;;;;;39.53;22.35;;;;;;;7.47;54.72;99445.22;4856859;28;98305;-85
2022/12/09 09:13:40;;;;;;;34.92;21.85;;;;;;;7.58;54.54;99450.09;4853463;28;97305;-85
2022/12/09 09:16:11;;;;;;;41.50;22.65;;;;;;;7.71;54.26;99452.22;4836346;28;96805;-87
2022/12/09 09:18:37;;;;;;;34.90;21.77;;;;;;;7.81;54.10;99446.66;4851128;28;100000;-91
2022/12/09 09:21:05;;;;;;;30.52;19.05;;;;;;;7.96;53.82;99447.84;4850221;28;101375;-88
2022/12/09 09:23:30;;;;;;;26.65;18.17;;;;;;;7.92;52.96;99429.66;4849891;28;98559;-84
2022/12/09 09:25:56;;;;;;;30.40;19.08;;;;;;;8.10;52.33;99442.94;4854949;28;97038;-85
2022/12/09 09:28:21;;;;;;;28.95;17.95;;;;;;;8.05;51.88;99429.19;4871885;28;97019;-85
2022/12/09 09:30:49;;;;;;;31.83;17.88;;;;;;;8.15;51.73;99438.41;4856917;28;101480;-85
2022/12/09 09:33:16;;;;;;;36.03;19.30;;;;;;;8.43;51.74;99442.59;4855172;28;97039;-86
2022/12/09 09:35:42;;;;;;;28.73;18.77;;;;;;;8.64;51.64;99435.66;4833457;28;96845;-86
2022/12/09 09:38:07;;;;;;;31.42;18.35;;;;;;;8.64;51.30;99412.09;4860378;28;101420;-85
2022/12/09 09:40:33;;;;;;;33.05;19.20;;;;;;;8.87;51.12;99429.47;4848058;28;101393;-85
2022/12/09 09:42:59;;;;;;;31.40;19.55;;;;;;;8.96;50.68;99431.72;4851564;28;98075;-84
2022/12/09 09:45:25;;;;;;;28.73;18.83;;;;;;;8.84;50.70;99399.94;4832935;28;97427;-85
2022/12/09 09:47:58;;;;;;;29.13;18.63;;;;;;;8.97;50.45;99431.66;4826637;28;101584;-86
2022/12/09 09:50:42;;;;;;;27.33;18.85;;;;;;;8.90;50.71;99426.75;4842065;28;101587;-85
2022/12/09 09:53:23;;;;;;;34.78;20.58;;;;;;;8.95;50.64;99427.41;4846301;28;97234;-85
2022/12/09 09:55:57;;;;;;;37.92;21.33;;;;;;;8.91;50.72;99421.47;4847753;28;97084;-85
2022/12/09 09:58:37;;;;;;;32.83;20.70;;;;;;;8.84;50.36;99427.84;4847748;28;98014;-94
2022/12/09 10:01:12;;;;;;;31.38;19.40;;;;;;;8.57;50.51;99398.44;4866094;28;97792;-95
2022/12/09 10:07:50;;;;;;;35.67;18.15;;;;;;;8.49;51.84;99418.81;4874888;28;96662;-94
2022/12/09 10:25:56;;;;;;;26.75;16.85;;;;;;;7.89;53.18;99408.03;4818427;29;96718;-94
2022/12/09 10:31:53;;;;;;;27.02;18.73;;;;;;;7.88;52.87;99399.34;4819189;29;96706;-95
2022/12/09 10:34:36;;;;;;;33.08;18.95;;;;;;;7.77;52.97;99411.09;4788680;29;96750;-94
2022/12/09 10:37:02;;;;;;;31.23;19.25;;;;;;;7.81;53.00;99403.06;4813474;29;100733;-94
2022/12/09 10:39:30;;;;;;;27.83;19.00;;;;;;;7.66;53.07;99391.44;4788065;29;98312;-93
2022/12/09 10:44:47;;;;;;;31.80;18.90;;;;;;;7.69;53.44;99395.69;4840793;28;96874;-94
2022/12/09 10:47:33;;;;;;;31.75;19.95;;;;;;;7.65;53.35;99397.56;4844983;28;100265;-92
2022/12/09 10:50:00;;;;;;;28.95;16.85;;;;;;;7.69;53.45;99385.25;4856719;28;98885;-94
2022/12/09 10:52:35;;;;;;;26.27;16.63;;;;;;;7.61;53.78;99382.06;4844622;28;96710;-92
2022/12/09 11:02:50;;;;;;;24.98;16.65;;;;;;;7.60;53.86;99367.31;4762384;29;96868;-93
2022/12/09 11:17:27;;;;;;;21.13;12.35;;;;;;;7.25;54.40;99354.63;4744270;29;96923;-94
2022/12/09 11:27:32;;;;;;;20.23;11.77;;;;;;;7.10;54.76;99336.91;4764753;29;97027;-94
2022/12/09 11:34:25;;;;;;;16.45;11.15;;;;;;;6.92;54.90;99333.19;4763253;29;96907;-95
2022/12/09 11:44:37;;;;;;;17.02;11.88;;;;;;;6.32;54.60;99267.41;4792263;29;97065;-89
2022/12/09 11:47:14;;;;;;;17.60;11.40;;;;;;;6.22;55.02;99246.91;4804276;28;96837;-96
2022/12/09 11:50:02;;;;;;;17.40;12.23;;;;;;;6.25;54.90;99258.06;4850857;28;96679;-94
2022/12/09 11:52:29;;;;;;;21.13;12.45;;;;;;;6.22;54.99;99259.94;4845130;29;99945;-90
2022/12/09 11:55:22;;;;;;;20.80;12.83;;;;;;;6.46;55.53;99292.16;4828920;29;100872;-91
2022/12/09 11:58:01;;;;;;;18.02;13.00;;;;;;;6.55;55.80;99320.53;4848277;29;96905;-92
2022/12/09 12:00:33;;;;;;;20.15;12.55;;;;;;;6.50;56.05;99312.00;4850725;28;96902;-92
2022/12/09 12:03:13;;;;;;;18.98;11.80;;;;;;;6.23;55.94;99261.66;4847404;29;101200;-86
2022/12/09 12:05:44;;;;;;;17.83;11.43;;;;;;;6.48;56.04;99314.66;4856097;28;100695;-94
2022/12/09 12:08:52;;;;;;;19.60;11.95;;;;;;;6.18;55.84;99253.97;4862118;28;96908;-94
2022/12/09 12:11:36;;;;;;;16.83;11.93;;;;;;;6.40;56.14;99294.97;4839900;28;97341;-93
2022/12/09 12:14:18;;;;;;;17.67;12.70;;;;;;;6.25;56.72;99294.56;4859762;28;100388;-94
2022/12/09 12:16:54;;;;;;;18.77;12.32;;;;;;;6.40;56.77;99308.00;4839229;28;100874;-91
2022/12/09 12:19:37;;;;;;;20.20;13.17;;;;;;;6.50;56.59;99325.03;4848791;28;96741;-92
2022/12/09 12:22:15;;;;;;;19.52;13.95;;;;;;;6.24;57.13;99279.84;4854470;28;96878;-96
2022/12/09 12:25:15;;;;;;;20.52;13.77;;;;;;;6.33;57.10;99313.41;4858294;28;100076;-92
2022/12/09 12:28:13;;;;;;;22.42;12.77;;;;;;;6.22;57.40;99309.44;4857419;28;101151;-90
2022/12/09 12:31:09;;;;;;;17.67;12.77;;;;;;;6.26;57.40;99319.75;4839895;28;97389;-91
2022/12/09 12:33:53;;;;;;;20.17;13.60;;;;;;;6.27;58.17;99311.00;4850497;28;96926;-90
2022/12/09 12:36:25;;;;;;;22.00;14.37;;;;;;;6.39;58.11;99319.34;4869463;28;100057;-90